Time;durP1;ratioP1;P1;durP2;ratioP2;P2;SDS_P1;SDS_P2;PMS_P1;PMS_P2;Temp;Humidity;BMP_temperature;BMP_pressure;BME280_temperature;BME280_humidity;BME280_pressure;Samples;Min_cycle;Max_cycle;Signal;HPM_P1;HPM_P2
2022/04/25 00:02:41;;;;;;;8.73;4.40;;;;;;;9.35;100.00;99856.91;5991016;29;20362;-96
2022/04/25 00:05:44;;;;;;;7.15;4.72;;;;;;;9.30;100.00;99860.81;6002918;29;20046;-95
2022/04/25 00:08:49;;;;;;;10.55;4.68;;;;;;;9.26;100.00;99870.56;6016497;29;20085;-95
2022/04/25 00:11:51;;;;;;;7.25;4.07;;;;;;;9.27;100.00;99869.66;5998152;29;20606;-94
2022/04/25 00:14:56;;;;;;;8.50;4.85;;;;;;;9.24;100.00;99877.63;5999577;29;20061;-95
2022/04/25 00:17:58;;;;;;;9.68;5.07;;;;;;;9.21;100.00;99873.53;6007654;29;20046;-95
2022/04/25 00:21:00;;;;;;;9.55;4.43;;;;;;;9.20;100.00;99874.50;5992716;29;20054;-95
2022/04/25 00:24:03;;;;;;;5.88;4.35;;;;;;;9.40;100.00;99878.00;6026027;29;20049;-96
2022/04/25 00:27:07;;;;;;;10.43;5.00;;;;;;;9.36;99.80;99874.03;6026124;29;20537;-96
2022/04/25 00:30:11;;;;;;;8.80;4.38;;;;;;;9.27;100.00;99883.38;6008819;29;20044;-96
2022/04/25 00:33:16;;;;;;;7.90;4.45;;;;;;;9.27;99.90;99864.50;6004131;29;20488;-95
2022/04/25 00:36:18;;;;;;;8.40;4.35;;;;;;;9.32;98.37;99870.06;6007214;29;20049;-94
2022/04/25 00:39:23;;;;;;;6.82;4.70;;;;;;;9.12;100.00;99874.34;6022130;29;20050;-95
2022/04/25 00:42:26;;;;;;;9.30;4.78;;;;;;;8.92;100.00;99876.00;6019806;29;20048;-96
2022/04/25 00:45:32;;;;;;;9.20;5.10;;;;;;;8.89;100.00;99871.06;6005085;29;20041;-95
2022/04/25 00:48:34;;;;;;;12.90;4.93;;;;;;;8.77;100.00;99875.47;6018684;29;20037;-95
2022/04/25 00:51:36;;;;;;;11.48;5.47;;;;;;;8.66;100.00;99874.72;6004075;29;20144;-95
2022/04/25 00:54:41;;;;;;;10.73;5.18;;;;;;;8.59;100.00;99872.63;6019098;29;20045;-95
2022/04/25 00:57:44;;;;;;;9.38;4.85;;;;;;;8.47;100.00;99878.81;5996453;29;20053;-95
2022/04/25 01:00:46;;;;;;;9.13;4.68;;;;;;;8.45;100.00;99880.69;5995134;29;20670;-94
2022/04/25 01:03:49;;;;;;;6.70;4.50;;;;;;;8.48;100.00;99880.41;6002263;29;20060;-95
2022/04/25 01:06:54;;;;;;;5.63;4.30;;;;;;;8.57;100.00;99879.69;6003229;29;20148;-95
2022/04/25 01:09:56;;;;;;;7.03;4.35;;;;;;;8.77;100.00;99884.97;5996362;29;20046;-94
2022/04/25 01:12:58;;;;;;;11.18;4.63;;;;;;;8.74;100.00;99883.44;6002270;29;20112;-95
2022/04/25 01:16:00;;;;;;;8.55;4.93;;;;;;;8.68;100.00;99881.38;6006271;29;20777;-95
2022/04/25 01:19:05;;;;;;;9.70;5.38;;;;;;;8.74;100.00;99891.19;6004073;29;20045;-95
2022/04/25 01:22:16;;;;;;;10.05;4.93;;;;;;;8.67;100.00;99891.81;6006496;29;20704;-95
2022/04/25 01:28:39;;;;;;;;;;;;;;;8.71;100.00;99888.88;6013380;29;20460;-92
2022/04/25 01:31:44;;;;;;;14.52;5.95;;;;;;;8.71;100.00;99893.22;5986802;29;19927;-94
2022/04/25 01:34:46;;;;;;;11.93;5.55;;;;;;;8.66;100.00;99898.75;6020468;29;20050;-95
2022/04/25 01:37:48;;;;;;;7.60;5.10;;;;;;;8.67;100.00;99902.13;6000333;29;20053;-96
2022/04/25 01:40:50;;;;;;;9.43;6.07;;;;;;;8.64;100.00;99895.47;6008701;29;20037;-95
2022/04/25 01:43:54;;;;;;;10.98;5.38;;;;;;;8.73;100.00;99905.06;6003403;29;20049;-95
2022/04/25 01:46:57;;;;;;;10.98;5.95;;;;;;;8.66;100.00;99906.50;6006758;29;20045;-94
2022/04/25 01:49:58;;;;;;;10.48;5.75;;;;;;;8.56;100.00;99903.81;6004022;29;20060;-95
2022/04/25 01:53:00;;;;;;;11.52;5.35;;;;;;;8.57;100.00;99902.06;6006290;29;20372;-94
2022/04/25 01:56:03;;;;;;;13.88;7.88;;;;;;;8.57;100.00;99904.63;5992089;29;20041;-95
2022/04/25 01:59:05;;;;;;;9.00;5.35;;;;;;;8.56;100.00;99905.59;6023258;29;20046;-94
2022/04/25 02:02:07;;;;;;;7.95;4.70;;;;;;;8.58;100.00;99908.88;6024130;29;20496;-95
2022/04/25 02:05:10;;;;;;;9.10;5.32;;;;;;;8.55;100.00;99898.81;6019531;29;20173;-94
2022/04/25 02:08:12;;;;;;;8.38;5.32;;;;;;;8.53;100.00;99898.94;6001807;29;20511;-95
2022/04/25 02:11:20;;;;;;;9.23;5.40;;;;;;;8.54;100.00;99899.72;6008077;29;20053;-94
2022/04/25 02:14:23;;;;;;;8.95;5.45;;;;;;;8.50;100.00;99900.94;6006016;29;20048;-95
2022/04/25 02:17:25;;;;;;;8.38;5.38;;;;;;;8.47;100.00;99903.75;6006233;29;20053;-94
2022/04/25 02:20:27;;;;;;;12.93;6.22;;;;;;;8.50;100.00;99898.38;6017215;29;20546;-94
2022/04/25 02:23:29;;;;;;;9.00;5.22;;;;;;;8.49;100.00;99896.72;6017681;29;20485;-95
2022/04/25 02:26:32;;;;;;;9.75;5.78;;;;;;;8.47;100.00;99898.59;6006140;29;20685;-94
2022/04/25 02:29:38;;;;;;;10.15;5.95;;;;;;;8.47;100.00;99898.59;6012722;29;20041;-94
2022/04/25 02:32:40;;;;;;;9.77;5.90;;;;;;;8.48;100.00;99902.81;6005340;29;20049;-95
2022/04/25 02:35:43;;;;;;;10.80;5.90;;;;;;;8.48;100.00;99910.56;6004998;29;20053;-95
2022/04/25 02:38:45;;;;;;;9.90;5.78;;;;;;;8.47;100.00;99911.47;6026101;29;20082;-95
2022/04/25 02:41:47;;;;;;;11.50;6.03;;;;;;;8.43;100.00;99910.13;6024215;29;20077;-94
2022/04/25 02:44:49;;;;;;;10.43;5.75;;;;;;;8.50;100.00;99912.06;6008546;29;20049;-95
2022/04/25 02:47:52;;;;;;;9.57;6.50;;;;;;;8.44;100.00;99904.00;6007145;29;20080;-95
2022/04/25 02:50:54;;;;;;;10.75;6.57;;;;;;;8.46;100.00;99904.69;6022489;29;20076;-95
2022/04/25 02:53:57;;;;;;;10.70;5.65;;;;;;;8.37;100.00;99901.91;6007819;29;20033;-94
2022/04/25 02:57:00;;;;;;;9.98;5.68;;;;;;;8.32;100.00;99904.03;6019200;29;20060;-95
2022/04/25 03:00:03;;;;;;;13.57;6.97;;;;;;;8.35;100.00;99906.34;5982555;29;20046;-95
2022/04/25 03:03:05;;;;;;;11.52;6.30;;;;;;;8.39;100.00;99905.16;6023495;29;20064;-94
2022/04/25 03:06:09;;;;;;;9.18;5.93;;;;;;;8.33;100.00;99903.06;6003538;29;20076;-95
2022/04/25 03:09:11;;;;;;;10.15;5.20;;;;;;;8.29;100.00;99906.81;6011867;29;20052;-94
2022/04/25 03:12:13;;;;;;;11.00;5.40;;;;;;;8.29;100.00;99911.16;6019391;29;20440;-95
2022/04/25 03:15:16;;;;;;;9.73;5.30;;;;;;;8.28;100.00;99910.34;6005930;29;20038;-94
2022/04/25 03:18:22;;;;;;;12.13;6.32;;;;;;;8.30;100.00;99912.81;6001953;29;20056;-95
2022/04/25 03:21:24;;;;;;;11.43;6.53;;;;;;;8.29;100.00;99919.72;6017061;29;20049;-94
2022/04/25 03:24:26;;;;;;;11.55;6.03;;;;;;;8.34;100.00;99916.78;6007830;29;20493;-94
2022/04/25 03:27:29;;;;;;;9.93;6.40;;;;;;;8.30;100.00;99921.38;6013934;29;20045;-94
2022/04/25 03:30:31;;;;;;;11.20;6.47;;;;;;;8.25;100.00;99920.06;5986632;29;20079;-95
2022/04/25 03:33:35;;;;;;;10.82;5.95;;;;;;;8.21;100.00;99916.94;6008890;29;20170;-93
2022/04/25 03:36:37;;;;;;;11.55;6.38;;;;;;;8.23;100.00;99927.13;6018683;29;20065;-95
2022/04/25 03:39:40;;;;;;;9.70;5.80;;;;;;;8.28;100.00;99925.81;5991280;29;20046;-95
2022/04/25 03:42:44;;;;;;;11.52;6.65;;;;;;;8.27;100.00;99933.66;6004121;29;20518;-95
2022/04/25 03:45:46;;;;;;;11.73;6.50;;;;;;;8.26;100.00;99932.03;6018481;29;20056;-94
2022/04/25 03:48:48;;;;;;;11.63;7.57;;;;;;;8.26;100.00;99930.28;6018930;29;20576;-94
2022/04/25 03:51:50;;;;;;;13.20;8.40;;;;;;;8.27;100.00;99928.50;6007546;29;20054;-95
2022/04/25 03:58:13;;;;;;;9.30;6.60;;;;;;;8.24;100.00;99931.34;6021523;29;20046;-94
2022/04/25 04:01:15;;;;;;;11.80;6.90;;;;;;;8.21;100.00;99940.13;6013808;29;20469;-94
2022/04/25 04:04:17;;;;;;;12.70;7.82;;;;;;;8.26;100.00;99938.00;6020667;29;20041;-95
2022/04/25 04:07:19;;;;;;;14.90;8.18;;;;;;;8.25;100.00;99946.69;6008127;29;20045;-94
2022/04/25 04:10:22;;;;;;;13.48;7.95;;;;;;;8.26;100.00;99948.31;6023907;29;20045;-94
2022/04/25 04:13:25;;;;;;;11.88;7.40;;;;;;;8.19;100.00;99952.31;6018728;29;20041;-95
2022/04/25 04:16:26;;;;;;;11.73;8.15;;;;;;;8.19;100.00;99962.63;6008290;29;20053;-94
2022/04/25 04:19:29;;;;;;;12.38;8.55;;;;;;;8.18;100.00;99964.41;6009137;29;20194;-94
2022/04/25 04:22:32;;;;;;;12.88;8.35;;;;;;;8.19;100.00;99962.63;6013374;29;20046;-94
2022/04/25 04:25:34;;;;;;;11.18;8.35;;;;;;;8.23;100.00;99963.22;6013879;29;20041;-94
2022/04/25 04:28:36;;;;;;;11.00;7.30;;;;;;;8.21;100.00;99973.66;6020796;29;20412;-95
2022/04/25 04:31:41;;;;;;;13.27;7.32;;;;;;;8.22;100.00;99977.84;5996472;29;20056;-93
2022/04/25 04:34:43;;;;;;;16.73;9.95;;;;;;;8.22;100.00;99977.84;6016275;29;20053;-94
2022/04/25 04:37:45;;;;;;;14.70;9.10;;;;;;;8.15;100.00;99989.59;6021356;29;20535;-95
2022/04/25 04:40:47;;;;;;;14.90;9.02;;;;;;;8.16;100.00;99986.06;6020237;29;20054;-94
2022/04/25 04:43:49;;;;;;;12.00;8.30;;;;;;;8.13;100.00;99992.28;6014384;29;20187;-94
2022/04/25 04:46:52;;;;;;;15.13;8.93;;;;;;;8.14;100.00;99995.69;6015259;29;20049;-95
2022/04/25 04:49:55;;;;;;;17.92;10.32;;;;;;;8.14;100.00;99995.69;6019118;29;20052;-95
2022/04/25 04:52:59;;;;;;;14.48;9.60;;;;;;;8.19;100.00;100009.03;6017450;29;20113;-94
2022/04/25 04:56:01;;;;;;;14.32;9.32;;;;;;;8.17;100.00;100005.75;6016376;29;20085;-94
2022/04/25 04:59:03;;;;;;;12.15;7.78;;;;;;;8.17;100.00;100011.75;6014013;29;20054;-95
2022/04/25 05:02:06;;;;;;;16.60;10.02;;;;;;;8.19;100.00;100015.00;6022148;29;20056;-95
2022/04/25 05:05:10;;;;;;;16.35;10.35;;;;;;;8.25;100.00;100002.56;6017641;29;20419;-94
2022/04/25 05:08:13;;;;;;;22.27;12.32;;;;;;;8.24;100.00;100006.09;6009147;29;20046;-94
2022/04/25 05:11:15;;;;;;;15.48;9.98;;;;;;;8.24;100.00;100012.06;6012347;29;20412;-95
2022/04/25 05:14:17;;;;;;;17.05;9.35;;;;;;;8.24;100.00;100006.91;6014962;29;20053;-95
2022/04/25 05:17:19;;;;;;;14.38;9.05;;;;;;;8.17;100.00;100019.50;6013874;29;20528;-96
2022/04/25 05:20:23;;;;;;;15.40;9.85;;;;;;;8.08;100.00;100022.75;6010688;29;20404;-95
2022/04/25 05:23:26;;;;;;;14.00;8.98;;;;;;;8.01;100.00;100020.78;5995550;29;20082;-95
2022/04/25 05:26:28;;;;;;;15.32;9.25;;;;;;;7.92;100.00;100028.25;6019039;29;20160;-95
2022/04/25 05:29:30;;;;;;;15.23;9.27;;;;;;;7.94;100.00;100026.38;6013342;29;20566;-94
2022/04/25 05:32:55;;;;;;;13.77;8.73;;;;;;;7.96;100.00;100031.44;6010402;29;20415;-94
2022/04/25 05:35:58;;;;;;;16.92;9.70;;;;;;;7.86;100.00;100033.88;6013004;29;20104;-95
2022/04/25 05:38:59;;;;;;;21.58;9.70;;;;;;;7.87;100.00;100035.50;6012867;29;20049;-92
2022/04/25 05:42:05;;;;;;;18.80;10.07;;;;;;;7.86;100.00;100041.59;6004636;29;20049;-94
2022/04/25 05:45:12;;;;;;;15.88;9.35;;;;;;;7.84;100.00;100040.09;6005249;29;20563;-95
2022/04/25 05:54:58;;;;;;;12.82;7.45;;;;;;;7.76;100.00;100038.91;6004792;29;20049;-94
2022/04/25 05:58:02;;;;;;;16.48;8.32;;;;;;;7.72;100.00;100047.78;6022774;29;20056;-96
2022/04/25 06:01:04;;;;;;;14.40;8.25;;;;;;;7.77;100.00;100050.84;6015259;29;20037;-95
2022/04/25 06:04:05;;;;;;;15.35;7.22;;;;;;;7.81;100.00;100051.44;6011745;29;20308;-92
2022/04/25 06:07:07;;;;;;;13.95;7.88;;;;;;;7.88;100.00;100052.63;6015623;29;20041;-91
2022/04/25 06:10:13;;;;;;;18.33;7.80;;;;;;;7.96;100.00;100059.78;5998206;29;20076;-90
2022/04/25 06:13:18;;;;;;;12.15;6.68;;;;;;;8.03;100.00;100055.00;6008848;29;20571;-90
2022/04/25 06:16:20;;;;;;;9.25;6.75;;;;;;;8.07;100.00;100049.47;6009755;29;20054;-89
2022/04/25 06:19:22;;;;;;;10.68;6.55;;;;;;;8.13;100.00;100051.59;6011543;29;20113;-89
2022/04/25 06:22:24;;;;;;;10.80;6.13;;;;;;;8.18;100.00;100054.63;6008980;29;20041;-89
2022/04/25 06:25:27;;;;;;;10.35;6.38;;;;;;;8.23;100.00;100059.44;6003401;29;20164;-89
2022/04/25 06:28:29;;;;;;;12.45;7.22;;;;;;;8.31;100.00;100058.84;6010350;29;20045;-89
2022/04/25 06:31:31;;;;;;;9.98;6.30;;;;;;;8.43;100.00;100057.13;6014208;29;20130;-88
2022/04/25 06:34:33;;;;;;;10.75;6.35;;;;;;;8.61;100.00;100064.22;6014315;29;20042;-89
2022/04/25 06:37:35;;;;;;;8.85;5.85;;;;;;;8.72;100.00;100072.88;6012398;29;20041;-90
2022/04/25 06:40:38;;;;;;;9.60;6.45;;;;;;;8.83;100.00;100083.19;6011775;29;20045;-90
2022/04/25 06:43:40;;;;;;;10.00;6.30;;;;;;;8.97;100.00;100082.13;5995394;29;20066;-90
2022/04/25 06:46:43;;;;;;;8.68;6.35;;;;;;;9.14;100.00;100086.75;6011486;29;20046;-91
2022/04/25 06:49:44;;;;;;;10.18;7.43;;;;;;;9.26;100.00;100084.94;6012142;29;20057;-91
2022/04/25 06:52:46;;;;;;;11.38;7.72;;;;;;;9.23;100.00;100085.19;6008409;29;20111;-91
2022/04/25 06:55:48;;;;;;;11.50;6.53;;;;;;;8.97;100.00;100088.09;6004301;29;20044;-91
2022/04/25 06:58:50;;;;;;;9.60;6.47;;;;;;;8.69;100.00;100089.41;6006354;29;20056;-92
2022/04/25 07:01:52;;;;;;;10.55;7.28;;;;;;;8.52;100.00;100093.34;6009094;29;20050;-91
2022/04/25 07:04:55;;;;;;;11.00;7.40;;;;;;;8.38;100.00;100094.34;6006933;29;20037;-91
2022/04/25 07:07:57;;;;;;;9.60;6.70;;;;;;;8.30;100.00;100103.63;6009675;29;20057;-91
2022/04/25 07:11:00;;;;;;;12.80;6.97;;;;;;;8.30;100.00;100103.63;5992769;29;20085;-91
2022/04/25 07:14:02;;;;;;;11.02;6.43;;;;;;;8.33;100.00;100098.22;5993041;29;20050;-92
2022/04/25 07:17:04;;;;;;;11.82;7.55;;;;;;;8.33;100.00;100103.38;6004358;29;20233;-91
2022/04/25 07:20:08;;;;;;;8.27;6.53;;;;;;;8.37;100.00;100099.63;6009623;29;20049;-92
2022/04/25 07:29:52;;;;;;;6.20;4.93;;;;;;;8.68;100.00;100108.44;6000067;29;20097;-92
2022/04/25 07:32:55;;;;;;;7.30;4.63;;;;;;;8.96;100.00;100107.09;5997301;29;20049;-92
2022/04/25 07:35:57;;;;;;;5.80;4.47;;;;;;;9.27;100.00;100115.81;6001136;29;20085;-91
2022/04/25 07:38:58;;;;;;;7.60;4.97;;;;;;;9.42;100.00;100115.53;6003473;29;20049;-92
2022/04/25 07:42:01;;;;;;;6.65;4.97;;;;;;;9.52;100.00;100116.41;6011070;29;20049;-92
2022/04/25 07:45:03;;;;;;;7.80;4.90;;;;;;;9.51;100.00;100116.53;6010879;29;20053;-92
2022/04/25 07:48:05;;;;;;;10.02;6.20;;;;;;;9.43;100.00;100120.56;5998194;29;20049;-92
2022/04/25 07:51:07;;;;;;;9.80;6.68;;;;;;;9.22;100.00;100137.78;6019731;29;20416;-91
2022/04/25 07:54:09;;;;;;;9.15;6.95;;;;;;;9.10;100.00;100138.75;6017208;29;20048;-91
2022/04/25 07:57:11;;;;;;;11.85;6.72;;;;;;;9.04;100.00;100133.13;6010592;29;20049;-92
2022/04/25 08:00:14;;;;;;;10.55;7.57;;;;;;;9.05;100.00;100139.94;6000445;29;20415;-91
2022/04/25 08:03:16;;;;;;;13.23;8.30;;;;;;;9.15;100.00;100142.59;6000513;29;20049;-91
2022/04/25 08:06:20;;;;;;;17.27;8.88;;;;;;;9.18;100.00;100141.53;6015599;29;20049;-91
2022/04/25 08:09:22;;;;;;;12.95;9.27;;;;;;;9.19;100.00;100143.16;6021093;29;20075;-91
2022/04/25 08:19:05;;;;;;;18.42;11.02;;;;;;;9.33;100.00;100147.25;6015605;29;20526;-91
2022/04/25 08:22:09;;;;;;;17.90;11.70;;;;;;;9.58;100.00;100153.84;5990444;29;20049;-91
2022/04/25 08:25:12;;;;;;;17.33;11.15;;;;;;;9.75;100.00;100155.88;6013656;29;20137;-91
2022/04/25 08:28:15;;;;;;;18.85;11.82;;;;;;;10.04;100.00;100158.69;6007893;29;20964;-91
2022/04/25 08:31:17;;;;;;;18.00;12.75;;;;;;;10.41;100.00;100167.72;6011952;29;20041;-91
2022/04/25 08:34:21;;;;;;;16.50;10.93;;;;;;;10.48;100.00;100169.72;6020003;29;20512;-91
2022/04/25 08:37:23;;;;;;;13.50;9.88;;;;;;;10.53;100.00;100180.50;6017324;29;20045;-91
2022/04/25 08:40:26;;;;;;;14.00;10.57;;;;;;;10.56;100.00;100174.22;6021371;29;20769;-90
2022/04/25 08:43:30;;;;;;;16.98;10.95;;;;;;;10.62;100.00;100185.81;6021998;29;20307;-90
2022/04/25 08:46:35;;;;;;;15.38;11.43;;;;;;;10.73;100.00;100183.97;6022501;29;20194;-91
2022/04/25 08:49:38;;;;;;;17.95;12.43;;;;;;;10.88;100.00;100186.19;6003470;29;21047;-92
2022/04/25 08:52:40;;;;;;;19.23;12.40;;;;;;;10.87;100.00;100181.97;6020910;29;20128;-91
2022/04/25 08:55:43;;;;;;;22.85;13.70;;;;;;;10.87;100.00;100189.72;6003554;29;20057;-91
2022/04/25 08:58:46;;;;;;;21.75;13.93;;;;;;;10.94;100.00;100198.63;6014752;29;20102;-91
2022/04/25 09:01:48;;;;;;;21.75;13.93;;;;;;;11.00;100.00;100203.25;6018998;29;20052;-91
2022/04/25 09:04:50;;;;;;;20.25;13.90;;;;;;;11.14;100.00;100196.91;6021978;29;20068;-93
2022/04/25 09:07:53;;;;;;;18.83;13.18;;;;;;;11.32;100.00;100202.25;6012557;29;20081;-93
2022/04/25 09:12:09;;;;;;;19.52;13.07;;;;;;;11.51;100.00;100204.06;6022455;29;20853;-94
2022/04/25 09:14:21;;;;;;;19.33;12.80;;;;;;;11.73;100.00;100208.97;6022274;29;20420;-93
2022/04/25 09:17:23;;;;;;;19.77;13.38;;;;;;;11.82;100.00;100218.50;6022773;29;20500;-93
2022/04/25 09:20:26;;;;;;;20.48;13.68;;;;;;;11.88;100.00;100224.97;6018170;29;20041;-94
2022/04/25 09:23:29;;;;;;;19.25;14.20;;;;;;;11.76;100.00;100228.63;6016865;29;20593;-94
2022/04/25 09:26:31;;;;;;;20.23;13.63;;;;;;;11.59;100.00;100233.53;5985655;29;20052;-94
2022/04/25 09:29:38;;;;;;;19.92;13.13;;;;;;;11.55;100.00;100233.91;6013859;29;20052;-93
2022/04/25 09:32:40;;;;;;;18.55;12.10;;;;;;;11.61;100.00;100230.81;6000774;29;20060;-94
2022/04/25 09:35:44;;;;;;;14.70;11.15;;;;;;;11.66;100.00;100228.63;6014285;29;20104;-94
2022/04/25 09:38:46;;;;;;;12.05;9.98;;;;;;;11.67;100.00;100235.44;6012247;29;20057;-94
2022/04/25 09:41:49;;;;;;;11.95;9.23;;;;;;;11.67;100.00;100230.25;6020167;29;20054;-94
2022/04/25 09:44:59;;;;;;;12.30;8.68;;;;;;;11.77;100.00;100243.22;6023333;29;20053;-94
2022/04/25 09:48:18;;;;;;;12.52;7.85;;;;;;;11.77;100.00;100240.63;6004002;29;20057;-94
2022/04/25 09:51:20;;;;;;;10.30;8.25;;;;;;;11.60;100.00;100242.09;6013076;29;20062;-94
2022/04/25 09:54:25;;;;;;;11.48;8.00;;;;;;;11.39;100.00;100239.63;6019710;29;20050;-94
2022/04/25 09:57:35;;;;;;;13.02;8.95;;;;;;;11.24;100.00;100246.16;6018773;29;20049;-94
2022/04/25 10:00:38;;;;;;;16.15;10.32;;;;;;;11.11;100.00;100247.19;6005744;29;20053;-94
2022/04/25 10:03:42;;;;;;;16.38;10.55;;;;;;;11.17;100.00;100251.03;6014459;29;20140;-94
2022/04/25 10:06:44;;;;;;;16.50;13.07;;;;;;;11.24;100.00;100259.09;6006524;29;20046;-93
2022/04/25 10:09:48;;;;;;;19.25;11.55;;;;;;;11.39;100.00;100257.78;6002450;29;20708;-92
2022/04/25 10:12:50;;;;;;;20.83;12.38;;;;;;;11.61;100.00;100260.13;5986425;29;20050;-93
2022/04/25 10:15:53;;;;;;;18.02;12.30;;;;;;;11.73;100.00;100268.63;6005117;29;20050;-94
2022/04/25 10:18:55;;;;;;;18.08;12.70;;;;;;;11.84;100.00;100273.66;5998159;29;20088;-94
2022/04/25 10:21:57;;;;;;;19.13;13.02;;;;;;;11.94;100.00;100275.47;5991205;29;20053;-95
2022/04/25 10:24:59;;;;;;;16.00;11.60;;;;;;;12.03;100.00;100272.88;6006697;29;20050;-94
2022/04/25 10:28:05;;;;;;;15.13;11.85;;;;;;;12.19;100.00;100276.69;5983350;29;20052;-93
2022/04/25 10:31:11;;;;;;;13.60;10.75;;;;;;;12.26;100.00;100272.59;5988681;29;20635;-94
2022/04/25 10:34:14;;;;;;;15.75;11.93;;;;;;;12.23;100.00;100278.88;6001177;29;20049;-94
2022/04/25 10:37:37;;;;;;;15.30;10.57;;;;;;;12.38;100.00;100281.06;6000142;29;20045;-93
2022/04/25 10:44:11;;;;;;;14.55;10.40;;;;;;;12.57;100.00;100278.44;6005510;29;20049;-94
2022/04/25 10:47:16;;;;;;;13.88;10.57;;;;;;;12.59;100.00;100284.28;6010770;29;20049;-95
2022/04/25 10:50:18;;;;;;;13.32;10.32;;;;;;;12.47;100.00;100281.06;5999969;29;20603;-95
2022/04/25 10:53:56;;;;;;;12.43;9.32;;;;;;;12.36;100.00;100286.38;6005710;29;20046;-94
2022/04/25 10:57:07;;;;;;;10.57;7.15;;;;;;;12.22;100.00;100289.38;6005848;29;20437;-92
2022/04/25 11:00:28;;;;;;;;;;;;;;;12.17;100.00;100292.41;6010752;29;20045;-92
2022/04/25 11:03:31;;;;;;;11.73;8.02;;;;;;;12.01;100.00;100295.53;6009205;29;20023;-92
2022/04/25 11:06:34;;;;;;;11.73;7.78;;;;;;;12.00;100.00;100285.28;5989560;29;20046;-92
2022/04/25 11:09:38;;;;;;;10.38;8.23;;;;;;;12.02;100.00;100296.34;6018450;29;20991;-92
2022/04/25 11:12:56;;;;;;;12.18;9.73;;;;;;;12.04;100.00;100295.25;6010638;29;21355;-92
2022/04/25 11:16:15;;;;;;;11.82;9.77;;;;;;;12.02;100.00;100302.41;6015607;29;20514;-92
2022/04/25 11:19:21;;;;;;;17.15;11.23;;;;;;;12.03;100.00;100304.03;6004699;29;20140;-93
2022/04/25 11:22:38;;;;;;;14.02;10.30;;;;;;;11.94;100.00;100304.81;6014278;29;20496;-92
2022/04/25 11:25:41;;;;;;;13.25;10.25;;;;;;;11.91;100.00;100310.28;6016756;29;20089;-92
2022/04/25 11:29:00;;;;;;;11.43;8.13;;;;;;;11.98;100.00;100313.16;6016384;29;20196;-93
2022/04/25 11:32:25;;;;;;;15.82;9.25;;;;;;;11.95;100.00;100316.00;6017148;29;20054;-92
2022/04/25 11:35:27;;;;;;;10.05;7.85;;;;;;;11.84;100.00;100329.91;5995610;29;20567;-92
2022/04/25 11:39:50;;;;;;;14.07;10.05;;;;;;;11.90;100.00;100324.22;6017029;29;20054;-91
2022/04/25 11:41:58;;;;;;;12.30;9.23;;;;;;;12.07;100.00;100320.13;6009185;29;20061;-91
2022/04/25 11:45:07;;;;;;;13.63;9.38;;;;;;;12.17;100.00;100320.13;6014801;29;20041;-91
2022/04/25 11:48:15;;;;;;;10.45;8.40;;;;;;;12.25;100.00;100318.50;6023432;29;20056;-91
2022/04/25 11:51:25;;;;;;;9.00;7.65;;;;;;;12.29;100.00;100329.41;6007122;29;20049;-91
2022/04/25 11:54:31;;;;;;;10.52;8.02;;;;;;;12.16;100.00;100329.69;6013217;29;20681;-91
2022/04/25 11:57:38;;;;;;;12.07;7.68;;;;;;;12.01;100.00;100329.28;6014641;29;20578;-91
2022/04/25 12:00:43;;;;;;;9.75;7.60;;;;;;;12.02;100.00;100327.50;5998904;29;20112;-91
2022/04/25 12:03:45;;;;;;;15.18;7.40;;;;;;;12.08;100.00;100324.38;6010277;29;20062;-91
2022/04/25 12:07:00;;;;;;;11.65;7.57;;;;;;;12.14;100.00;100331.59;5990384;29;20060;-92
2022/04/25 12:16:49;;;;;;;10.82;7.47;;;;;;;12.44;100.00;100332.41;6018054;29;20610;-92
2022/04/25 12:20:02;;;;;;;11.30;7.80;;;;;;;12.74;100.00;100347.00;6018164;29;20049;-90
2022/04/25 12:23:05;;;;;;;9.98;7.55;;;;;;;13.06;100.00;100344.03;6018128;29;20086;-90
2022/04/25 12:26:16;;;;;;;11.15;7.05;;;;;;;13.16;98.93;100344.00;6014284;29;20541;-91
2022/04/25 12:29:18;;;;;;;9.98;7.00;;;;;;;13.03;96.74;100341.72;6015579;29;20042;-91
2022/04/25 12:32:27;;;;;;;10.15;7.63;;;;;;;12.77;96.54;100349.34;6016464;29;20493;-91
2022/04/25 12:35:29;;;;;;;12.48;8.18;;;;;;;12.81;98.51;100355.06;6013049;29;20201;-90
2022/04/25 12:38:37;;;;;;;10.65;8.30;;;;;;;12.80;98.53;100351.66;6014710;29;20504;-91
2022/04/25 12:41:40;;;;;;;12.35;7.75;;;;;;;13.03;97.38;100343.50;6010843;29;20052;-90
2022/04/25 12:44:56;;;;;;;11.40;7.97;;;;;;;13.01;97.51;100341.03;6025754;29;20567;-91
2022/04/25 12:47:58;;;;;;;13.00;8.23;;;;;;;13.04;99.59;100347.75;6019248;29;20613;-90
2022/04/25 12:51:02;;;;;;;9.75;7.53;;;;;;;13.04;100.00;100339.94;6018409;29;20201;-90
2022/04/25 12:54:31;;;;;;;11.23;8.07;;;;;;;13.11;99.22;100346.22;6018559;29;20053;-90
2022/04/25 12:57:34;;;;;;;11.98;8.50;;;;;;;13.14;97.01;100340.72;6007828;29;20046;-91
2022/04/25 13:00:44;;;;;;;13.32;8.90;;;;;;;13.11;97.72;100343.63;6017569;29;20148;-91
2022/04/25 13:04:19;;;;;;;11.07;8.70;;;;;;;13.16;99.12;100341.41;6013912;29;20483;-89
2022/04/25 13:07:25;;;;;;;11.85;8.68;;;;;;;13.29;98.50;100341.97;6006216;29;20056;-90
2022/04/25 13:10:31;;;;;;;12.57;8.60;;;;;;;13.40;98.01;100353.13;6010687;29;20109;-91
2022/04/25 13:13:33;;;;;;;11.88;8.52;;;;;;;13.45;93.95;100354.31;6007932;29;20054;-90
2022/04/25 13:16:34;;;;;;;12.30;8.57;;;;;;;13.48;94.33;100354.03;6016166;29;20050;-90
2022/04/25 13:19:37;;;;;;;12.35;8.95;;;;;;;13.50;90.39;100351.31;6014551;29;20058;-90
2022/04/25 13:22:39;;;;;;;13.35;9.23;;;;;;;13.51;93.61;100353.72;5993842;29;20124;-90
2022/04/25 13:25:42;;;;;;;11.05;9.55;;;;;;;13.47;96.77;100349.00;6010788;29;20448;-91
2022/04/25 13:28:44;;;;;;;13.05;9.73;;;;;;;13.51;97.32;100352.94;6004107;29;20590;-90
2022/04/25 13:31:47;;;;;;;12.68;8.50;;;;;;;13.62;93.62;100354.53;6000162;29;20050;-90
2022/04/25 13:34:49;;;;;;;11.95;8.77;;;;;;;13.65;92.60;100356.84;6008912;29;20471;-90
2022/04/25 13:37:51;;;;;;;22.77;20.38;;;;;;;13.66;93.33;100354.06;6006343;29;20049;-91
2022/04/25 13:40:52;;;;;;;13.82;9.93;;;;;;;13.71;93.66;100353.63;6005239;29;20045;-91
2022/04/25 13:43:54;;;;;;;14.15;10.27;;;;;;;13.67;92.35;100358.31;6014391;29;20042;-90
2022/04/25 13:46:57;;;;;;;14.10;10.35;;;;;;;13.40;94.90;100356.53;6007844;29;20082;-92
2022/04/25 13:49:59;;;;;;;12.07;10.65;;;;;;;13.20;96.42;100354.97;6004096;29;20111;-90
2022/04/25 13:53:01;;;;;;;15.38;11.10;;;;;;;13.22;96.55;100355.63;5984469;29;20143;-90
2022/04/25 13:56:06;;;;;;;17.33;11.93;;;;;;;13.38;95.64;100355.06;6005679;29;20050;-90
2022/04/25 13:59:10;;;;;;;16.27;12.63;;;;;;;13.57;94.81;100353.19;6014270;29;20049;-91
2022/04/25 14:05:45;;;;;;;16.92;14.38;;;;;;;14.20;92.26;100348.94;6001140;29;20128;-89
2022/04/25 14:08:47;;;;;;;19.27;15.95;;;;;;;14.59;90.53;100346.03;6000565;29;20045;-88
2022/04/25 14:11:51;;;;;;;20.98;16.60;;;;;;;14.90;88.16;100356.00;6003474;29;20041;-90
2022/04/25 14:14:53;;;;;;;20.95;16.48;;;;;;;15.20;86.80;100345.09;6012351;29;20045;-89
2022/04/25 14:17:55;;;;;;;21.65;17.05;;;;;;;15.41;85.43;100344.72;6000743;29;20057;-89
2022/04/25 14:20:58;;;;;;;19.45;16.23;;;;;;;15.77;85.10;100339.28;6014123;29;20045;-89
2022/04/25 14:24:01;;;;;;;24.08;18.02;;;;;;;16.02;79.76;100339.34;6009464;29;20038;-89
2022/04/25 14:27:03;;;;;;;22.55;18.92;;;;;;;16.12;80.92;100342.63;6004742;29;20054;-88
2022/04/25 14:30:09;;;;;;;19.95;17.13;;;;;;;16.37;84.52;100338.22;6008630;29;20042;-89
2022/04/25 14:33:11;;;;;;;21.25;14.68;;;;;;;16.95;78.36;100339.03;6004157;29;20807;-88
2022/04/25 14:36:13;;;;;;;20.02;17.10;;;;;;;17.12;76.77;100337.19;5991065;29;20603;-87
2022/04/25 14:39:15;;;;;;;20.27;16.98;;;;;;;16.96;73.09;100338.03;6003689;29;20049;-88
2022/04/25 14:42:16;;;;;;;22.48;17.77;;;;;;;17.40;78.30;100343.59;6010042;29;20412;-88
2022/04/25 14:45:24;;;;;;;24.05;19.48;;;;;;;17.56;69.13;100342.69;6008827;29;20053;-88
2022/04/25 14:48:26;;;;;;;22.85;19.20;;;;;;;17.51;71.81;100345.00;6009851;29;20732;-88